createdAt,value
2018-10-05T00:00:06.824Z,1019.81
2018-10-05T00:00:47.381Z,1019.79
2018-10-05T00:01:27.934Z,1019.82
2018-10-05T00:02:08.495Z,1019.81
2018-10-05T00:02:49.062Z,1019.77
2018-10-05T00:03:29.629Z,1019.81
2018-10-05T00:04:10.169Z,1019.8
2018-10-05T00:04:50.737Z,1019.76
2018-10-05T00:05:31.299Z,1019.77
2018-10-05T00:06:11.868Z,1019.81
2018-10-05T00:06:52.432Z,1019.75
2018-10-05T00:07:32.997Z,1019.72
2018-10-05T00:08:13.550Z,1019.75
2018-10-05T00:08:54.116Z,1019.75
2018-10-05T00:09:34.661Z,1019.74
2018-10-05T00:10:15.334Z,1019.74
2018-10-05T00:10:55.904Z,1019.7
2018-10-05T00:11:36.466Z,1019.71
2018-10-05T00:12:17.044Z,1019.74
2018-10-05T00:12:57.613Z,1019.75
2018-10-05T00:13:38.163Z,1019.75
2018-10-05T00:14:18.722Z,1019.72
2018-10-05T00:14:59.287Z,1019.75
2018-10-05T00:15:39.844Z,1019.72
2018-10-05T00:16:20.403Z,1019.71
2018-10-05T00:17:00.953Z,1019.69
2018-10-05T00:17:41.529Z,1019.71
2018-10-05T00:18:22.084Z,1019.71
2018-10-05T00:19:02.635Z,1019.73
2018-10-05T00:19:45.739Z,1019.76
2018-10-05T00:20:26.302Z,1019.68
2018-10-05T00:21:06.840Z,1019.74
2018-10-05T00:21:47.428Z,1019.71
2018-10-05T00:22:27.987Z,1019.69
2018-10-05T00:23:08.565Z,1019.7
2018-10-05T00:23:49.116Z,1019.7
2018-10-05T00:24:29.670Z,1019.7
2018-10-05T00:25:10.237Z,1019.68
2018-10-05T00:25:50.832Z,1019.68
2018-10-05T00:26:31.358Z,1019.69
2018-10-05T00:27:11.929Z,1019.67
2018-10-05T00:27:52.500Z,1019.66
2018-10-05T00:28:33.035Z,1019.65
2018-10-05T00:29:13.600Z,1019.63
2018-10-05T00:29:54.162Z,1019.63
2018-10-05T00:30:34.738Z,1019.61
2018-10-05T00:31:15.299Z,1019.67
2018-10-05T00:31:55.858Z,1019.64
2018-10-05T00:32:36.416Z,1019.58
2018-10-05T00:33:16.990Z,1019.59
2018-10-05T00:33:57.559Z,1019.63
2018-10-05T00:34:38.124Z,1019.6
2018-10-05T00:35:18.685Z,1019.61
2018-10-05T00:35:59.268Z,1019.64
2018-10-05T00:36:39.820Z,1019.56
2018-10-05T00:37:20.386Z,1019.62
2018-10-05T00:38:01.047Z,1019.58
2018-10-05T00:38:41.509Z,1019.57
2018-10-05T00:39:22.094Z,1019.56
2018-10-05T00:40:02.655Z,1019.57
2018-10-05T00:40:43.248Z,1019.55
2018-10-05T00:41:23.790Z,1019.57
2018-10-05T00:42:04.367Z,1019.57
2018-10-05T00:42:44.940Z,1019.51
2018-10-05T00:43:25.510Z,1019.53
2018-10-05T00:44:06.075Z,1019.57
2018-10-05T00:44:46.622Z,1019.54
2018-10-05T00:45:27.167Z,1019.52
2018-10-05T00:46:07.724Z,1019.5
2018-10-05T00:46:48.306Z,1019.56
2018-10-05T00:47:28.867Z,1019.47
2018-10-05T00:48:09.427Z,1019.51
2018-10-05T00:48:49.975Z,1019.52
2018-10-05T00:49:30.532Z,1019.53
2018-10-05T00:50:11.134Z,1019.53
2018-10-05T00:50:51.681Z,1019.53
2018-10-05T00:51:32.238Z,1019.53
2018-10-05T00:52:12.795Z,1019.49
2018-10-05T00:52:53.362Z,1019.55
2018-10-05T00:53:34.036Z,1019.53
2018-10-05T00:54:14.485Z,1019.5
2018-10-05T00:54:55.059Z,1019.51
2018-10-05T00:55:35.616Z,1019.48
2018-10-05T00:56:16.188Z,1019.5
2018-10-05T00:56:56.735Z,1019.5
2018-10-05T00:57:37.356Z,1019.5
2018-10-05T00:58:17.873Z,1019.46
2018-10-05T00:58:58.423Z,1019.5
2018-10-05T00:59:38.974Z,1019.49
2018-10-05T01:00:19.537Z,1019.46
2018-10-05T01:01:00.103Z,1019.45
2018-10-05T01:01:40.731Z,1019.43
2018-10-05T01:02:21.257Z,1019.45
2018-10-05T01:03:01.798Z,1019.4
2018-10-05T01:03:42.348Z,1019.42
2018-10-05T01:04:22.897Z,1019.39
2018-10-05T01:05:03.468Z,1019.37
2018-10-05T01:05:44.034Z,1019.39
2018-10-05T01:06:24.615Z,1019.41
2018-10-05T01:07:05.157Z,1019.4
2018-10-05T01:07:45.716Z,1019.42
2018-10-05T01:08:26.269Z,1019.42
2018-10-05T01:09:06.834Z,1019.4
2018-10-05T01:09:47.396Z,1019.42
2018-10-05T01:10:27.999Z,1019.44
2018-10-05T01:11:08.519Z,1019.39
2018-10-05T01:11:49.085Z,1019.41
2018-10-05T01:12:29.687Z,1019.38
2018-10-05T01:13:10.258Z,1019.4
2018-10-05T01:13:50.818Z,1019.37
2018-10-05T01:14:31.381Z,1019.35
2018-10-05T01:15:11.953Z,1019.37
2018-10-05T01:15:52.506Z,1019.38
2018-10-05T01:16:33.071Z,1019.42
2018-10-05T01:17:13.613Z,1019.43
2018-10-05T01:17:54.175Z,1019.39
2018-10-05T01:18:34.776Z,1019.37
2018-10-05T01:19:15.340Z,1019.36
2018-10-05T01:19:55.892Z,1019.38
2018-10-05T01:20:36.443Z,1019.37
2018-10-05T01:21:16.997Z,1019.38
2018-10-05T01:21:57.561Z,1019.33
2018-10-05T01:22:38.138Z,1019.38
2018-10-05T01:23:18.702Z,1019.37
2018-10-05T01:23:59.254Z,1019.38
2018-10-05T01:24:39.867Z,1019.34
2018-10-05T01:25:20.380Z,1019.35
2018-10-05T01:26:01.447Z,1019.38
2018-10-05T01:26:41.987Z,1019.34
2018-10-05T01:27:22.544Z,1019.37
2018-10-05T01:28:03.105Z,1019.41
2018-10-05T01:28:43.682Z,1019.38
2018-10-05T01:29:24.255Z,1019.38
2018-10-05T01:30:04.828Z,1019.39
2018-10-05T01:30:45.377Z,1019.4
2018-10-05T01:31:25.945Z,1019.42
2018-10-05T01:32:06.501Z,1019.4
2018-10-05T01:32:47.072Z,1019.38
2018-10-05T01:33:27.624Z,1019.41
2018-10-05T01:34:08.177Z,1019.41
2018-10-05T01:34:48.739Z,1019.39
2018-10-05T01:35:29.297Z,1019.37
2018-10-05T01:36:09.856Z,1019.38
2018-10-05T01:36:50.425Z,1019.38
2018-10-05T01:37:30.986Z,1019.37
2018-10-05T01:38:11.535Z,1019.37
2018-10-05T01:38:52.145Z,1019.36
2018-10-05T01:39:32.648Z,1019.38
2018-10-05T01:40:13.218Z,1019.33
2018-10-05T01:40:53.766Z,1019.34
2018-10-05T01:41:34.345Z,1019.34
2018-10-05T01:42:14.907Z,1019.35
2018-10-05T01:42:55.473Z,1019.32
2018-10-05T01:43:36.039Z,1019.29
2018-10-05T01:44:16.597Z,1019.26
2018-10-05T01:44:57.144Z,1019.29
2018-10-05T01:45:37.712Z,1019.26
2018-10-05T01:46:18.271Z,1019.26
2018-10-05T01:46:58.842Z,1019.23
2018-10-05T01:47:39.380Z,1019.26
2018-10-05T01:48:19.929Z,1019.23
2018-10-05T01:49:00.476Z,1019.2
2018-10-05T01:49:41.036Z,1019.22
2018-10-05T01:50:21.596Z,1019.22
2018-10-05T01:51:02.157Z,1019.2
2018-10-05T01:51:42.728Z,1019.18
2018-10-05T01:52:23.278Z,1019.2
2018-10-05T01:53:03.828Z,1019.19
2018-10-05T01:53:44.393Z,1019.16
2018-10-05T01:54:24.962Z,1019.13
2018-10-05T01:55:05.513Z,1019.15
2018-10-05T01:55:46.091Z,1019.18
2018-10-05T01:56:26.662Z,1019.18
2018-10-05T01:57:07.218Z,1019.12
2018-10-05T01:57:47.770Z,1019.19
2018-10-05T01:58:28.344Z,1019.18
2018-10-05T01:59:08.896Z,1019.18
2018-10-05T01:59:49.454Z,1019.14
2018-10-05T02:00:30.032Z,1019.14
2018-10-05T02:01:10.591Z,1019.15
2018-10-05T02:01:51.166Z,1019.13
2018-10-05T02:02:31.805Z,1019.12
2018-10-05T02:03:12.314Z,1019.1
2018-10-05T02:03:52.889Z,1019.14
2018-10-05T02:04:33.477Z,1019.14
2018-10-05T02:05:14.045Z,1019.13
2018-10-05T02:05:54.604Z,1019.14
2018-10-05T02:06:35.160Z,1019.11
2018-10-05T02:07:15.715Z,1019.16
2018-10-05T02:07:56.277Z,1019.15
2018-10-05T02:08:36.835Z,1019.1
2018-10-05T02:09:17.390Z,1019.17
2018-10-05T02:09:57.942Z,1019.12
2018-10-05T02:10:38.499Z,1019.11
2018-10-05T02:11:19.058Z,1019.13
2018-10-05T02:11:59.629Z,1019.09
2018-10-05T02:12:40.190Z,1019.1
2018-10-05T02:13:20.749Z,1019.09
2018-10-05T02:14:01.312Z,1019.06
2018-10-05T02:14:41.865Z,1019.11
2018-10-05T02:15:22.418Z,1019.06
2018-10-05T02:16:02.982Z,1019.08
2018-10-05T02:16:43.536Z,1019.02
2018-10-05T02:17:24.109Z,1019.07
2018-10-05T02:18:04.664Z,1019.05
2018-10-05T02:18:45.218Z,1019.04
2018-10-05T02:19:25.785Z,1019.05
2018-10-05T02:20:06.349Z,1019
2018-10-05T02:20:46.930Z,1019.01
2018-10-05T02:21:27.473Z,1019.01
2018-10-05T02:22:08.039Z,1019.02
2018-10-05T02:22:48.604Z,1019
2018-10-05T02:23:29.161Z,1018.98
2018-10-05T02:24:09.711Z,1018.95
2018-10-05T02:24:50.298Z,1018.95
2018-10-05T02:25:30.866Z,1018.98
2018-10-05T02:26:11.432Z,1018.99
2018-10-05T02:26:51.986Z,1018.96
2018-10-05T02:27:32.552Z,1018.94
2018-10-05T02:28:13.093Z,1018.94
2018-10-05T02:28:53.688Z,1018.93
2018-10-05T02:29:34.259Z,1018.89
2018-10-05T02:30:14.815Z,1018.94
2018-10-05T02:30:55.375Z,1018.94
2018-10-05T02:31:35.939Z,1018.97
2018-10-05T02:32:16.522Z,1018.95
2018-10-05T02:32:57.169Z,1018.95
2018-10-05T02:33:37.627Z,1018.94
2018-10-05T02:34:18.202Z,1019
2018-10-05T02:34:58.782Z,1018.99
2018-10-05T02:35:39.315Z,1018.96
2018-10-05T02:36:19.881Z,1018.97
2018-10-05T02:37:00.451Z,1018.96
2018-10-05T02:37:41.009Z,1018.98
2018-10-05T02:38:21.561Z,1019
2018-10-05T02:39:02.132Z,1019
2018-10-05T02:39:42.702Z,1019.03
2018-10-05T02:40:23.270Z,1018.97
2018-10-05T02:41:03.826Z,1019
2018-10-05T02:41:44.459Z,1019.03
2018-10-05T02:42:24.951Z,1018.93
2018-10-05T02:43:05.503Z,1018.96
2018-10-05T02:43:46.052Z,1018.95
2018-10-05T02:44:26.609Z,1018.94
2018-10-05T02:45:07.158Z,1018.95
2018-10-05T02:45:47.728Z,1018.95
2018-10-05T02:46:28.279Z,1018.95
2018-10-05T02:47:08.843Z,1018.97
2018-10-05T02:47:49.390Z,1018.93
2018-10-05T02:48:29.950Z,1018.95
2018-10-05T02:49:10.499Z,1018.94
2018-10-05T02:49:51.053Z,1018.91
2018-10-05T02:50:31.605Z,1018.9
2018-10-05T02:51:12.160Z,1018.88
2018-10-05T02:51:52.745Z,1018.91
2018-10-05T02:52:33.309Z,1018.84
2018-10-05T02:53:13.863Z,1018.86
2018-10-05T02:53:54.438Z,1018.9
2018-10-05T02:54:35.022Z,1018.87
2018-10-05T02:55:15.589Z,1018.87
2018-10-05T02:55:56.146Z,1018.83
2018-10-05T02:56:36.706Z,1018.84
2018-10-05T02:57:17.267Z,1018.86
2018-10-05T02:57:57.860Z,1018.86
2018-10-05T02:58:38.442Z,1018.79
2018-10-05T02:59:19.014Z,1018.83
2018-10-05T02:59:59.570Z,1018.84
2018-10-05T03:00:40.130Z,1018.82
2018-10-05T03:01:20.710Z,1018.85
2018-10-05T03:02:01.263Z,1018.85
2018-10-05T03:02:41.850Z,1018.82
2018-10-05T03:03:22.426Z,1018.85
2018-10-05T03:04:02.981Z,1018.84
2018-10-05T03:04:43.540Z,1018.84
2018-10-05T03:05:24.093Z,1018.86
2018-10-05T03:06:04.658Z,1018.81
2018-10-05T03:06:45.219Z,1018.83
2018-10-05T03:07:25.791Z,1018.82
2018-10-05T03:08:06.348Z,1018.84
2018-10-05T03:08:46.894Z,1018.83
2018-10-05T03:09:27.455Z,1018.82
2018-10-05T03:10:08.029Z,1018.82
2018-10-05T03:10:48.630Z,1018.83
2018-10-05T03:11:29.196Z,1018.78
2018-10-05T03:12:09.763Z,1018.78
2018-10-05T03:12:50.321Z,1018.77
2018-10-05T03:13:30.885Z,1018.75
2018-10-05T03:14:11.463Z,1018.8
2018-10-05T03:14:52.022Z,1018.78
2018-10-05T03:15:32.582Z,1018.77
2018-10-05T03:16:13.149Z,1018.8
2018-10-05T03:16:53.712Z,1018.8
2018-10-05T03:17:34.269Z,1018.79
2018-10-05T03:18:14.823Z,1018.77
2018-10-05T03:18:55.376Z,1018.77
2018-10-05T03:19:35.950Z,1018.78
2018-10-05T03:20:16.508Z,1018.77
2018-10-05T03:20:57.068Z,1018.8
2018-10-05T03:21:37.624Z,1018.73
2018-10-05T03:22:18.192Z,1018.78
2018-10-05T03:22:58.787Z,1018.74
2018-10-05T03:23:39.353Z,1018.77
2018-10-05T03:24:19.910Z,1018.75
2018-10-05T03:25:00.466Z,1018.76
2018-10-05T03:25:41.018Z,1018.78
2018-10-05T03:26:21.583Z,1018.74
2018-10-05T03:27:02.168Z,1018.74
2018-10-05T03:27:42.722Z,1018.72
2018-10-05T03:28:23.284Z,1018.69
2018-10-05T03:29:03.849Z,1018.73
2018-10-05T03:29:44.399Z,1018.73
2018-10-05T03:30:24.998Z,1018.68
2018-10-05T03:31:05.545Z,1018.67
2018-10-05T03:31:46.099Z,1018.64
2018-10-05T03:32:26.670Z,1018.63
2018-10-05T03:33:07.234Z,1018.6
2018-10-05T03:33:47.805Z,1018.63
2018-10-05T03:34:28.362Z,1018.61
2018-10-05T03:35:08.921Z,1018.61
2018-10-05T03:35:49.488Z,1018.58
2018-10-05T03:36:30.063Z,1018.57
2018-10-05T03:37:10.609Z,1018.56
2018-10-05T03:37:51.164Z,1018.54
2018-10-05T03:38:31.738Z,1018.49
2018-10-05T03:39:12.321Z,1018.5
2018-10-05T03:39:52.879Z,1018.45
2018-10-05T03:40:33.499Z,1018.45
2018-10-05T03:41:14.061Z,1018.47
2018-10-05T03:41:54.622Z,1018.44
2018-10-05T03:42:35.180Z,1018.41
2018-10-05T03:43:15.745Z,1018.42
2018-10-05T03:43:56.295Z,1018.41
2018-10-05T03:44:36.847Z,1018.42
2018-10-05T03:45:17.415Z,1018.42
2018-10-05T03:45:57.981Z,1018.42
2018-10-05T03:46:38.542Z,1018.42
2018-10-05T03:47:19.158Z,1018.42
2018-10-05T03:47:59.737Z,1018.45
2018-10-05T03:48:40.289Z,1018.42
2018-10-05T03:49:20.859Z,1018.43
2018-10-05T03:50:01.455Z,1018.45
2018-10-05T03:50:42.022Z,1018.45
2018-10-05T03:51:22.556Z,1018.47
2018-10-05T03:52:03.123Z,1018.44
2018-10-05T03:52:43.700Z,1018.43
2018-10-05T03:53:24.337Z,1018.49
2018-10-05T03:54:04.861Z,1018.45
2018-10-05T03:54:45.452Z,1018.51
2018-10-05T03:55:26.013Z,1018.53
2018-10-05T03:56:06.577Z,1018.54
2018-10-05T03:56:47.142Z,1018.51
2018-10-05T03:57:27.706Z,1018.47
2018-10-05T03:58:08.264Z,1018.5
2018-10-05T03:58:48.823Z,1018.48
2018-10-05T03:59:29.394Z,1018.51
2018-10-05T04:00:09.964Z,1018.46
2018-10-05T04:00:50.536Z,1018.48
2018-10-05T04:01:31.104Z,1018.47
2018-10-05T04:02:11.646Z,1018.53
2018-10-05T04:02:52.227Z,1018.48
2018-10-05T04:03:32.788Z,1018.52
2018-10-05T04:04:13.340Z,1018.47
2018-10-05T04:04:53.892Z,1018.52
2018-10-05T04:05:34.450Z,1018.47
2018-10-05T04:06:15.019Z,1018.46
2018-10-05T04:06:55.572Z,1018.46
2018-10-05T04:07:36.122Z,1018.46
2018-10-05T04:08:16.736Z,1018.45
2018-10-05T04:08:57.288Z,1018.45
2018-10-05T04:09:37.856Z,1018.45
2018-10-05T04:10:18.420Z,1018.44
2018-10-05T04:10:58.999Z,1018.44
2018-10-05T04:11:39.574Z,1018.44
2018-10-05T04:12:20.128Z,1018.45
2018-10-05T04:13:00.692Z,1018.45
2018-10-05T04:13:41.256Z,1018.47
2018-10-05T04:14:21.815Z,1018.43
2018-10-05T04:15:02.370Z,1018.44
2018-10-05T04:15:42.933Z,1018.44
2018-10-05T04:16:23.495Z,1018.41
2018-10-05T04:17:04.059Z,1018.4
2018-10-05T04:17:44.645Z,1018.39
2018-10-05T04:18:25.218Z,1018.37
2018-10-05T04:19:05.782Z,1018.38
2018-10-05T04:19:46.344Z,1018.39
2018-10-05T04:20:26.913Z,1018.36
2018-10-05T04:21:07.470Z,1018.39
2018-10-05T04:21:48.043Z,1018.36
2018-10-05T04:22:28.595Z,1018.42
2018-10-05T04:23:09.162Z,1018.4
2018-10-05T04:23:49.758Z,1018.41
2018-10-05T04:24:30.288Z,1018.41
2018-10-05T04:25:10.850Z,1018.45
2018-10-05T04:25:51.429Z,1018.41
2018-10-05T04:26:31.975Z,1018.43
2018-10-05T04:27:12.548Z,1018.42
2018-10-05T04:27:53.115Z,1018.39
2018-10-05T04:28:33.674Z,1018.44
2018-10-05T04:29:14.253Z,1018.44
2018-10-05T04:29:54.811Z,1018.48
2018-10-05T04:30:35.362Z,1018.48
2018-10-05T04:31:15.920Z,1018.53
2018-10-05T04:31:56.480Z,1018.49
2018-10-05T04:32:37.037Z,1018.5
2018-10-05T04:33:17.601Z,1018.53
2018-10-05T04:33:58.151Z,1018.53
2018-10-05T04:34:38.728Z,1018.54
2018-10-05T04:35:19.309Z,1018.53
2018-10-05T04:35:59.852Z,1018.51
2018-10-05T04:36:40.411Z,1018.54
2018-10-05T04:37:20.975Z,1018.53
2018-10-05T04:38:01.534Z,1018.55
2018-10-05T04:38:42.101Z,1018.53
2018-10-05T04:39:22.643Z,1018.56
2018-10-05T04:40:03.215Z,1018.56
2018-10-05T04:40:43.773Z,1018.56
2018-10-05T04:41:24.337Z,1018.58
2018-10-05T04:42:04.960Z,1018.57
2018-10-05T04:42:45.516Z,1018.54
2018-10-05T04:43:26.084Z,1018.56
2018-10-05T04:44:06.638Z,1018.56
2018-10-05T04:44:47.848Z,1018.59
2018-10-05T04:45:28.758Z,1018.57
2018-10-05T04:46:09.768Z,1018.56
2018-10-05T04:46:50.518Z,1018.58
2018-10-05T04:47:31.603Z,1018.59
2018-10-05T04:48:12.174Z,1018.6
2018-10-05T04:48:52.853Z,1018.61
2018-10-05T04:49:33.994Z,1018.59
2018-10-05T04:50:14.724Z,1018.56
2018-10-05T04:50:55.289Z,1018.56
2018-10-05T04:51:35.864Z,1018.58
2018-10-05T04:52:16.420Z,1018.61
2018-10-05T04:52:57.121Z,1018.59
2018-10-05T04:53:37.754Z,1018.63
2018-10-05T04:54:18.310Z,1018.64
2018-10-05T04:54:58.918Z,1018.66
2018-10-05T04:55:39.478Z,1018.6
2018-10-05T04:56:20.084Z,1018.63
2018-10-05T04:57:00.712Z,1018.62
2018-10-05T04:57:41.328Z,1018.63
2018-10-05T04:58:22.235Z,1018.61
2018-10-05T04:59:02.793Z,1018.64
2018-10-05T04:59:43.372Z,1018.64
2018-10-05T05:00:23.934Z,1018.66
2018-10-05T05:01:04.476Z,1018.67
2018-10-05T05:01:45.053Z,1018.65
2018-10-05T05:02:25.621Z,1018.66
2018-10-05T05:03:06.206Z,1018.65
2018-10-05T05:03:46.774Z,1018.69
2018-10-05T05:04:27.328Z,1018.66
2018-10-05T05:05:07.882Z,1018.67
2018-10-05T05:05:48.442Z,1018.68
2018-10-05T05:06:29.000Z,1018.68
2018-10-05T05:07:09.584Z,1018.69
2018-10-05T05:07:50.144Z,1018.68
2018-10-05T05:08:30.703Z,1018.7
2018-10-05T05:09:11.255Z,1018.71
2018-10-05T05:09:51.821Z,1018.68
2018-10-05T05:10:32.389Z,1018.71
2018-10-05T05:11:12.947Z,1018.72
2018-10-05T05:11:53.517Z,1018.7
2018-10-05T05:12:34.069Z,1018.72
2018-10-05T05:13:14.627Z,1018.73
2018-10-05T05:13:55.190Z,1018.76
2018-10-05T05:14:35.748Z,1018.72
2018-10-05T05:15:16.313Z,1018.76
2018-10-05T05:15:56.869Z,1018.74
2018-10-05T05:16:37.436Z,1018.72
2018-10-05T05:17:18.008Z,1018.74
2018-10-05T05:17:58.560Z,1018.72
2018-10-05T05:18:39.131Z,1018.73
2018-10-05T05:19:19.688Z,1018.72
2018-10-05T05:20:00.262Z,1018.73
2018-10-05T05:20:40.826Z,1018.74
2018-10-05T05:21:21.414Z,1018.73
2018-10-05T05:22:01.951Z,1018.72
2018-10-05T05:22:42.517Z,1018.7
2018-10-05T05:23:23.074Z,1018.73
2018-10-05T05:24:03.628Z,1018.69
2018-10-05T05:24:44.187Z,1018.68
2018-10-05T05:25:24.748Z,1018.71
2018-10-05T05:26:05.296Z,1018.72
2018-10-05T05:26:45.858Z,1018.72
2018-10-05T05:27:26.417Z,1018.71
2018-10-05T05:28:07.085Z,1018.72
2018-10-05T05:28:47.653Z,1018.73
2018-10-05T05:29:28.200Z,1018.74
2018-10-05T05:30:08.767Z,1018.71
2018-10-05T05:30:49.331Z,1018.68
2018-10-05T05:31:29.890Z,1018.72
2018-10-05T05:32:10.441Z,1018.73
2018-10-05T05:32:50.988Z,1018.75
2018-10-05T05:33:31.604Z,1018.77
2018-10-05T05:34:12.140Z,1018.78
2018-10-05T05:34:52.707Z,1018.79
2018-10-05T05:35:33.247Z,1018.82
2018-10-05T05:36:13.809Z,1018.81
2018-10-05T05:36:54.365Z,1018.81
2018-10-05T05:37:34.936Z,1018.82
2018-10-05T05:38:15.508Z,1018.84
2018-10-05T05:38:56.079Z,1018.84
2018-10-05T05:39:36.628Z,1018.79
2018-10-05T05:40:17.218Z,1018.79
2018-10-05T05:40:57.743Z,1018.8
2018-10-05T05:41:38.325Z,1018.82
2018-10-05T05:42:18.971Z,1018.82
2018-10-05T05:42:59.563Z,1018.82
2018-10-05T05:43:40.121Z,1018.83
2018-10-05T05:44:20.671Z,1018.88
2018-10-05T05:45:01.238Z,1018.86
2018-10-05T05:45:41.792Z,1018.88
2018-10-05T05:46:22.344Z,1018.85
2018-10-05T05:47:02.900Z,1018.88
2018-10-05T05:47:43.476Z,1018.83
2018-10-05T05:48:24.028Z,1018.83
2018-10-05T05:49:04.590Z,1018.9
2018-10-05T05:49:45.151Z,1018.89
2018-10-05T05:50:25.721Z,1018.86
2018-10-05T05:51:06.276Z,1018.87
2018-10-05T05:51:46.863Z,1018.86
2018-10-05T05:52:27.411Z,1018.87
2018-10-05T05:53:07.970Z,1018.89
2018-10-05T05:53:48.562Z,1018.87
2018-10-05T05:54:29.278Z,1018.85
2018-10-05T05:55:09.772Z,1018.88
2018-10-05T05:55:50.300Z,1018.88
2018-10-05T05:56:30.894Z,1018.87
2018-10-05T05:57:11.461Z,1018.86
2018-10-05T05:57:52.072Z,1018.9
2018-10-05T05:58:32.647Z,1018.91
2018-10-05T05:59:13.221Z,1018.93
2018-10-05T05:59:53.806Z,1018.91
2018-10-05T06:00:34.392Z,1018.94
2018-10-05T06:01:15.007Z,1018.92
2018-10-05T06:01:55.511Z,1018.9
2018-10-05T06:02:36.070Z,1018.94
2018-10-05T06:03:16.623Z,1018.96
2018-10-05T06:03:57.180Z,1018.94
2018-10-05T06:04:37.771Z,1018.95
2018-10-05T06:05:18.326Z,1018.96
2018-10-05T06:05:58.884Z,1018.93
2018-10-05T06:06:39.443Z,1018.99
2018-10-05T06:07:20.038Z,1018.98
2018-10-05T06:08:00.651Z,1018.93
2018-10-05T06:08:41.159Z,1018.93
2018-10-05T06:09:21.734Z,1018.94
2018-10-05T06:10:02.312Z,1018.96
2018-10-05T06:10:42.891Z,1018.96
2018-10-05T06:11:23.455Z,1018.98
2018-10-05T06:12:04.067Z,1018.98
2018-10-05T06:12:44.646Z,1019
2018-10-05T06:13:25.208Z,1019.01
2018-10-05T06:14:05.782Z,1018.97
2018-10-05T06:14:46.395Z,1018.95
2018-10-05T06:15:27.000Z,1018.97
2018-10-05T06:16:07.586Z,1019.01
2018-10-05T06:16:48.161Z,1018.98
2018-10-05T06:17:28.718Z,1018.96
2018-10-05T06:18:09.292Z,1018.97
2018-10-05T06:18:49.859Z,1018.96
2018-10-05T06:19:30.437Z,1018.96
2018-10-05T06:20:11.003Z,1018.99
2018-10-05T06:20:51.551Z,1018.97
2018-10-05T06:21:32.284Z,1019.01
2018-10-05T06:22:12.938Z,1019.01
2018-10-05T06:22:53.283Z,1019
2018-10-05T06:23:33.846Z,1018.97
2018-10-05T06:24:14.396Z,1019.02
2018-10-05T06:24:54.964Z,1018.99
2018-10-05T06:25:35.522Z,1019
2018-10-05T06:26:16.083Z,1019.06
2018-10-05T06:26:56.650Z,1019.08
2018-10-05T06:27:37.217Z,1019.02
2018-10-05T06:28:17.778Z,1019.05
2018-10-05T06:28:58.376Z,1019.05
2018-10-05T06:29:38.938Z,1019.04
2018-10-05T06:30:19.534Z,1019
2018-10-05T06:31:00.422Z,1019.01
2018-10-05T06:31:40.786Z,1019.04
2018-10-05T06:32:21.342Z,1019.03
2018-10-05T06:33:01.990Z,1019.07
2018-10-05T06:33:42.562Z,1019.02
2018-10-05T06:34:23.135Z,1019.05
2018-10-05T06:35:03.691Z,1019.02
2018-10-05T06:35:44.246Z,1019.06
2018-10-05T06:36:24.946Z,1019.07
2018-10-05T06:37:05.511Z,1019.03
2018-10-05T06:37:46.067Z,1019.05
2018-10-05T06:38:26.627Z,1019.08
2018-10-05T06:39:07.241Z,1019.02
2018-10-05T06:39:47.948Z,1019.01
2018-10-05T06:40:28.493Z,1019.01
2018-10-05T06:41:09.040Z,1018.99
2018-10-05T06:41:49.619Z,1019.01
2018-10-05T06:42:30.316Z,1018.97
2018-10-05T06:43:10.790Z,1018.96
2018-10-05T06:43:51.402Z,1019
2018-10-05T06:44:31.986Z,1019
2018-10-05T06:45:12.570Z,1019
2018-10-05T06:45:53.152Z,1018.98
2018-10-05T06:46:33.715Z,1019
2018-10-05T06:47:14.295Z,1019
2018-10-05T06:47:54.857Z,1019.01
2018-10-05T06:48:35.438Z,1019.05
2018-10-05T06:49:16.040Z,1019.04
2018-10-05T06:49:56.647Z,1019.03
2018-10-05T06:50:37.215Z,1019.03
2018-10-05T06:51:17.821Z,1018.99
2018-10-05T06:51:58.428Z,1019.04
2018-10-05T06:52:39.038Z,1019.02
2018-10-05T06:53:19.689Z,1019.05
2018-10-05T06:54:00.165Z,1019.01
2018-10-05T06:54:40.738Z,1019.03
2018-10-05T06:55:21.346Z,1019.08
2018-10-05T06:56:01.903Z,1019.06
2018-10-05T06:56:42.590Z,1019.05
2018-10-05T06:57:23.152Z,1019.09
2018-10-05T06:58:03.748Z,1019.06
2018-10-05T06:58:44.298Z,1019.13
2018-10-05T06:59:24.884Z,1019.1
2018-10-05T07:00:05.502Z,1019.11
2018-10-05T07:00:46.091Z,1019.18
2018-10-05T07:01:26.764Z,1019.13
2018-10-05T07:02:07.212Z,1019.15
2018-10-05T07:02:47.818Z,1019.17
2018-10-05T07:03:28.382Z,1019.2
2018-10-05T07:04:08.940Z,1019.15
2018-10-05T07:04:49.503Z,1019.2
2018-10-05T07:05:30.103Z,1019.21
2018-10-05T07:06:10.658Z,1019.19
2018-10-05T07:06:51.221Z,1019.16
2018-10-05T07:07:31.843Z,1019.2
2018-10-05T07:08:12.490Z,1019.18
2018-10-05T07:08:52.992Z,1019.21
2018-10-05T07:09:33.569Z,1019.2
2018-10-05T07:10:14.159Z,1019.18
2018-10-05T07:10:54.931Z,1019.2
2018-10-05T07:11:35.577Z,1019.19
2018-10-05T07:12:16.193Z,1019.21
2018-10-05T07:12:56.765Z,1019.24
2018-10-05T07:13:37.390Z,1019.22
2018-10-05T07:14:17.938Z,1019.25
2018-10-05T07:14:58.481Z,1019.27
2018-10-05T07:15:39.109Z,1019.38
2018-10-05T07:16:19.640Z,1019.47
2018-10-05T07:17:00.208Z,1019.49
2018-10-05T07:17:40.766Z,1019.37
2018-10-05T07:18:21.378Z,1019.34
2018-10-05T07:19:01.992Z,1019.44
2018-10-05T07:19:42.548Z,1019.51
2018-10-05T07:20:23.233Z,1019.64
2018-10-05T07:21:03.908Z,1019.78
2018-10-05T07:21:44.475Z,1019.79
2018-10-05T07:22:25.570Z,1019.79
2018-10-05T07:23:06.203Z,1019.76
2018-10-05T07:23:46.781Z,1019.8
2018-10-05T07:24:27.355Z,1019.77
2018-10-05T07:25:08.067Z,1019.76
2018-10-05T07:25:49.305Z,1019.82
2018-10-05T07:26:29.777Z,1019.75
2018-10-05T07:27:10.343Z,1019.75
2018-10-05T07:27:50.915Z,1019.71
2018-10-05T07:28:31.573Z,1019.72
2018-10-05T07:29:12.268Z,1019.72
2018-10-05T07:29:52.869Z,1019.68
2018-10-05T07:30:33.464Z,1019.69
2018-10-05T07:31:14.007Z,1019.68
2018-10-05T07:31:54.652Z,1019.71
2018-10-05T07:32:35.269Z,1019.72
2018-10-05T07:33:15.952Z,1019.71
2018-10-05T07:33:56.831Z,1019.68
2018-10-05T07:34:37.412Z,1019.75
2018-10-05T07:35:17.988Z,1019.72
2018-10-05T07:35:58.704Z,1019.71
2018-10-05T07:36:39.696Z,1019.74
2018-10-05T07:37:20.290Z,1019.72
2018-10-05T07:38:00.877Z,1019.7
2018-10-05T07:38:41.475Z,1019.7
2018-10-05T07:39:22.032Z,1019.68
2018-10-05T07:40:02.633Z,1019.62
2018-10-05T07:40:43.204Z,1019.58
2018-10-05T07:41:23.854Z,1019.48
2018-10-05T07:42:04.423Z,1019.47
2018-10-05T07:42:45.020Z,1019.47
2018-10-05T07:43:25.560Z,1019.45
2018-10-05T07:44:06.365Z,1019.42
2018-10-05T07:44:47.053Z,1019.44
2018-10-05T07:45:27.623Z,1019.43
2018-10-05T07:46:08.189Z,1019.42
2018-10-05T07:46:48.758Z,1019.46
2018-10-05T07:47:29.350Z,1019.47
2018-10-05T07:48:09.933Z,1019.42
2018-10-05T07:48:50.491Z,1019.41
2018-10-05T07:49:31.070Z,1019.41
2018-10-05T07:50:11.669Z,1019.44
2018-10-05T07:50:52.249Z,1019.4
2018-10-05T07:51:32.817Z,1019.43
2018-10-05T07:52:13.380Z,1019.39
2018-10-05T07:52:53.994Z,1019.42
2018-10-05T07:53:34.571Z,1019.39
2018-10-05T07:54:15.155Z,1019.41
2018-10-05T07:54:55.730Z,1019.44
2018-10-05T07:55:36.311Z,1019.44
2018-10-05T07:56:16.865Z,1019.47
2018-10-05T07:56:57.582Z,1019.48
2018-10-05T07:57:38.225Z,1019.45
2018-10-05T07:58:18.838Z,1019.46
2018-10-05T07:58:59.403Z,1019.48
2018-10-05T07:59:39.986Z,1019.47
2018-10-05T08:00:20.544Z,1019.48
2018-10-05T08:01:01.113Z,1019.47
2018-10-05T08:01:41.669Z,1019.46
2018-10-05T08:02:22.238Z,1019.43
2018-10-05T08:03:02.810Z,1019.45
2018-10-05T08:03:45.658Z,1019.45
2018-10-05T08:04:26.277Z,1019.46
2018-10-05T08:05:06.831Z,1019.48
2018-10-05T08:05:47.404Z,1019.48
2018-10-05T08:06:27.980Z,1019.49
2018-10-05T08:07:08.560Z,1019.45
2018-10-05T08:07:49.132Z,1019.47
2018-10-05T08:08:29.731Z,1019.46
2018-10-05T08:09:10.339Z,1019.45
2018-10-05T08:09:51.093Z,1019.41
2018-10-05T08:10:31.651Z,1019.44
2018-10-05T08:11:12.550Z,1019.46
2018-10-05T08:11:53.162Z,1019.49
2018-10-05T08:12:33.737Z,1019.45